METAR Data
IDs: Format: Raw Decoded Include TAF

Data at: 1046 UTC 26 Sep 2018

KWDR 261035Z AUTO 00000KT 1/2SM VCTS FG OVC001 22/21 A3015 RMK AO1 LTG DSNT NW
KWDR 261015Z AUTO 00000KT 2SM BR BKN001 OVC045 22/21 A3014 RMK AO1 LTG DSNT NW
KWDR 260955Z AUTO 00000KT 3SM BR OVC001 22/21 A3013 RMK AO1 LTG DSNT NW
KWDR 260935Z AUTO 00000KT 1 3/4SM BR OVC001 22/21 A3013 RMK AO1 LTG DSNT NW
KWDR 260915Z AUTO 00000KT 1SM BR OVC001 22/21 A3013 RMK AO1 LTG DSNT NW
KWDR 260855Z AUTO 00000KT 2 1/2SM BR SCT001 22/21 A3013 RMK AO1 LTG DSNT NW
KWDR 260835Z AUTO 00000KT 5SM BR SCT040 22/22 A3014 RMK AO1 LTG DSNT NW
KWDR 260815Z AUTO 00000KT 5SM BR SCT002 BKN040 BKN050 22/22 A3014 RMK AO1 LTG DSNT NW
KWDR 260755Z AUTO 00000KT 5SM BR SCT002 BKN049 OVC070 22/22 A3014 RMK AO1
KWDR 260735Z AUTO 00000KT 7SM VCTS SCT036 SCT049 OVC070 23/22 A3015 RMK AO1 LTG DSNT NW
KWDR 260715Z AUTO 00000KT 7SM BKN036 BKN048 OVC060 23/22 A3016 RMK AO1 LTG DSNT NW
KWDR 260655Z AUTO 00000KT 7SM -DZ BKN036 BKN046 OVC080 23/22 A3017 RMK AO1 LTG DSNT NW
KWDR 260635Z AUTO 00000KT 10SM -RA BKN034 OVC043 23/22 A3017 RMK AO1 LTG DSNT NW
KWDR 260615Z AUTO 00000KT 10SM VCTS SCT029 BKN038 OVC043 23/22 A3018 RMK AO1 LTG DSNT NW
KWDR 260555Z AUTO 32003KT 10SM OVC038 23/22 A3017 RMK AO1 LTG DSNT NW
KWDR 260535Z AUTO 00000KT 10SM OVC040 23/22 A3018 RMK AO1 LTG DSNT NW
KWDR 260515Z AUTO 00000KT 10SM OVC040 23/22 A3018 RMK AO1
KWDR 260455Z AUTO 00000KT 10SM BKN042 BKN048 OVC060 23/22 A3018 RMK AO1 LTG DSNT NW
KWDR 260435Z AUTO 00000KT 10SM BKN042 OVC049 23/22 A3018 RMK AO1 LTG DSNT NW
KWDR 260415Z AUTO 00000KT 10SM BKN042 23/22 A3019 RMK AO1 LTG DSNT NW
KWDR 260355Z AUTO 00000KT 10SM CLR 23/22 A3019 RMK AO1 LTG DSNT NW
KWDR 260335Z AUTO 00000KT 10SM CLR 23/22 A3018 RMK AO1 LTG DSNT NW
KWDR 260315Z AUTO 10003KT 10SM CLR 23/22 A3018 RMK AO1 LTG DSNT NW
KWDR 260255Z AUTO 00000KT 10SM SCT039 23/22 A3018 RMK AO1 LTG DSNT NW
KWDR 260235Z AUTO 00000KT 10SM SCT041 23/22 A3018 RMK AO1 LTG DSNT NE AND NW
KWDR 260215Z AUTO 00000KT 10SM BKN041 BKN060 23/22 A3018 RMK AO1 LTG DSNT NW
KWDR 260150Z AUTO 00000KT 10SM SCT038 24/23 A3018 RMK AO1 LTG DSNT NW
KWDR 260135Z AUTO 00000KT 10SM BKN038 23/22 A3017 RMK AO1 LTG DSNT W AND NW
KWDR 260115Z AUTO 00000KT 10SM CLR 24/22 A3017 RMK AO1 LTG DSNT W AND NW
KWDR 260035Z AUTO 06003KT 10SM CLR 25/22 A3016 RMK AO1 LTG DSNT NW
KWDR 260020Z AUTO 00000KT 10SM CLR 25/22 A3015 RMK AO1 LTG DSNT NW
KWDR 252355Z AUTO 00000KT 10SM CLR 25/22 A3015 RMK AO1 LTG DSNT NW
KWDR 252240Z AUTO 08004KT 10SM CLR 27/22 A3014 RMK AO1
KWDR 252210Z AUTO 00000KT 10SM CLR 27/22 A3014 RMK AO1 LTG DSNT SE
KWDR 252155Z AUTO 00000KT 10SM CLR 27/22 A3014 RMK AO1 LTG DSNT NW
KWDR 252130Z AUTO 07003KT 10SM CLR 27/22 A3015 RMK AO1 LTG DSNT NW
KWDR 252115Z AUTO 07006KT 10SM CLR 27/22 A3015 RMK AO1 LTG DSNT NW
KWDR 252055Z AUTO 07005KT 10SM CLR 28/22 A3015 RMK AO1
KWDR 252035Z AUTO 04004KT 10SM SCT023 SCT047 SCT055 27/22 A3016 RMK AO1 LTG DSNT E
KWDR 252020Z AUTO 08003KT 10SM SCT023 SCT029 BKN080 27/22 A3016 RMK AO1 LTG DSNT S
KWDR 251955Z AUTO 04003KT 10SM CLR 27/22 A3017 RMK AO1 LTG DSNT NW
KWDR 251940Z AUTO 06004KT 10SM CLR 27/22 A3017 RMK AO1
KWDR 251815Z AUTO 24003KT 10SM RA OVC027 26/22 A3021 RMK AO1
KWDR 251755Z AUTO 00000KT 10SM BKN026 OVC031 27/21 A3021 RMK AO1
KWDR 251735Z AUTO 13007KT 10SM BKN021 BKN027 OVC033 27/21 A3022 RMK AO1 LTG DSNT NW
KWDR 251715Z AUTO 00000KT 10SM BKN021 BKN027 OVC034 27/21 A3023 RMK AO1
KWDR 251655Z AUTO 07003KT 10SM BKN029 OVC039 26/21 A3023 RMK AO1 LTG DSNT SE
KWDR 251635Z AUTO 13003KT 10SM SCT016 SCT025 OVC032 26/21 A3024 RMK AO1
KWDR 251615Z AUTO 00000KT 10SM SCT016 BKN025 OVC032 26/21 A3024 RMK AO1 LTG DSNT NW
KWDR 251550Z AUTO 00000KT 10SM BKN014 OVC025 25/21 A3024 RMK AO1
KWDR 251530Z AUTO 12003KT 10SM BKN014 OVC018 25/21 A3024 RMK AO1 LTG DSNT SE AND NW
KWDR 251515Z AUTO 13003KT 10SM OVC012 25/21 A3024 RMK AO1 LTG DSNT SE AND NW
KWDR 251455Z AUTO 13003KT 10SM OVC012 25/21 A3024 RMK AO1 LTG DSNT SE
KWDR 251435Z AUTO 13007KT 10SM OVC008 25/22 A3024 RMK AO1 LTG DSNT SE AND NW
KWDR 251415Z AUTO 12004KT 10SM OVC006 23/22 A3024 RMK AO1 LTG DSNT NW
KWDR 251355Z AUTO 00000KT 10SM OVC006 23/22 A3024 RMK AO1
KWDR 251335Z AUTO 00000KT 10SM OVC006 23/21 A3024 RMK AO1 LTG DSNT NW
KWDR 251315Z AUTO 00000KT 10SM OVC006 23/21 A3024 RMK AO1
KWDR 251250Z AUTO 12004KT 10SM OVC006 23/21 A3024 RMK AO1 LTG DSNT NW
KWDR 251235Z AUTO 12003KT 10SM OVC004 23/22 A3023 RMK AO1
KWDR 251210Z AUTO 00000KT 10SM OVC004 23/21 A3023 RMK AO1
KWDR 251115Z AUTO 00000KT 10SM OVC004 22/21 A3022 RMK AO1 LTG DSNT NW
KWDR 251057Z AUTO 00000KT 10SM OVC004 23/22 A3022 RMK AO1 LTG DSNT NW
KWDR 251010Z AUTO 12003KT 10SM OVC004 22/21 A3021 RMK AO1 LTG DSNT NW
KWDR 250955Z AUTO 00000KT 7SM OVC004 22/21 A3021 RMK AO1 LTG DSNT NW
KWDR 250935Z AUTO 12005KT 10SM OVC004 22/21 A3020 RMK AO1 LTG DSNT NW
KWDR 250915Z AUTO 00000KT 10SM OVC004 22/21 A3020 RMK AO1 LTG DSNT NW
KWDR 250855Z AUTO 00000KT 7SM OVC006 22/21 A3020 RMK AO1 LTG DSNT NW
KWDR 250835Z AUTO 00000KT 10SM OVC006 22/21 A3020 RMK AO1 LTG DSNT NW
KWDR 250815Z AUTO 00000KT 10SM OVC006 22/21 A3020 RMK AO1
KWDR 250755Z AUTO 00000KT 10SM OVC006 22/21 A3020 RMK AO1
KWDR 250735Z AUTO 00000KT 10SM OVC008 22/21 A3020 RMK AO1 LTG DSNT NW
KWDR 250715Z AUTO 00000KT 10SM OVC008 22/21 A3021 RMK AO1 LTG DSNT NW
KWDR 250655Z AUTO 11003KT 10SM OVC008 22/21 A3021 RMK AO1
KWDR 250635Z AUTO 13004KT 10SM OVC008 22/21 A3021 RMK AO1 LTG DSNT W AND NW
KWDR 250615Z AUTO 10003KT 10SM BKN008 OVC013 22/21 A3021 RMK AO1 LTG DSNT NW
KWDR 250555Z AUTO 09003KT 10SM OVC008 22/21 A3021 RMK AO1 LTG DSNT W AND NW
KWDR 250530Z AUTO 00000KT 10SM OVC010 22/21 A3022 RMK AO1 LTG DSNT W AND NW
KWDR 250515Z AUTO 00000KT 10SM OVC010 22/21 A3022 RMK AO1 LTG DSNT W AND NW
KWDR 250455Z AUTO 09004KT 10SM SCT007 OVC010 22/21 A3022 RMK AO1
KWDR 250440Z AUTO 09004KT 10SM -RA BKN012 OVC022 22/21 A3023 RMK AO1 LTG DSNT NW
KWDR 250415Z AUTO 09004KT 10SM OVC012 22/21 A3024 RMK AO1 LTG DSNT NW
KWDR 250335Z AUTO 00000KT 10SM OVC014 22/21 A3024 RMK AO1 LTG DSNT W AND NW
KWDR 250315Z AUTO 09005KT 10SM OVC016 22/21 A3023 RMK AO1 LTG DSNT W AND NW
KWDR 250255Z AUTO 09005KT 10SM OVC020 23/21 A3023 RMK AO1 LTG DSNT W
KWDR 250235Z AUTO 10005KT 10SM SCT009 BKN022 OVC060 22/21 A3021 RMK AO1 LTG DSNT W AND NW
KWDR 250215Z AUTO 07005KT 10SM SCT009 OVC030 23/21 A3020 RMK AO1 LTG DSNT W AND NW
KWDR 250155Z AUTO 09004KT 10SM OVC032 23/21 A3021 RMK AO1 LTG DSNT W AND NW
KWDR 250135Z AUTO 08004KT 10SM BKN032 OVC045 23/21 A3020 RMK AO1 LTG DSNT NW
KWDR 250115Z AUTO 08005KT 10SM SCT032 OVC045 23/21 A3020 RMK AO1 LTG DSNT NW
KWDR 250055Z AUTO 09003KT 10SM OVC045 23/21 A3018 RMK AO1
KWDR 250035Z AUTO 10004KT 10SM SCT038 BKN045 23/21 A3017 RMK AO1 LTG DSNT W AND NW
KWDR 250015Z AUTO 09005KT 10SM SCT019 BKN033 OVC050 23/22 A3017 RMK AO1 LTG DSNT NW
KWDR 242355Z AUTO 12004KT 10SM BKN019 OVC029 24/22 A3017 RMK AO1
KWDR 242335Z AUTO 09005KT 10SM SCT021 BKN031 OVC039 25/21 A3016 RMK AO1 LTG DSNT NW
KWDR 242315Z AUTO 08004KT 10SM SCT027 BKN041 OVC095 26/21 A3016 RMK AO1 LTG DSNT NW
KWDR 242255Z AUTO 09003KT 10SM SCT027 SCT041 BKN095 26/21 A3016 RMK AO1 LTG DSNT SE